createdAt,value
2022-08-16T00:01:24.551Z,64.84
2022-08-16T00:03:53.885Z,65.21
2022-08-16T00:06:22.449Z,65.23
2022-08-16T00:08:49.755Z,65.51
2022-08-16T00:11:19.237Z,65.67
2022-08-16T00:13:53.843Z,64.94
2022-08-16T00:17:06.680Z,65.68
2022-08-16T00:19:13.764Z,65.75
2022-08-16T00:21:42.522Z,65.63
2022-08-16T00:24:12.331Z,65.82
2022-08-16T00:26:45.013Z,66.36
2022-08-16T00:29:16.048Z,66.22
2022-08-16T00:31:59.293Z,66.11
2022-08-16T00:34:44.220Z,66.39
2022-08-16T00:37:20.461Z,66.23
2022-08-16T00:39:57.537Z,66.31
2022-08-16T00:42:31.826Z,66.23
2022-08-16T00:45:18.760Z,66.07
2022-08-16T00:47:53.436Z,66.12
2022-08-16T00:50:36.616Z,66.17
2022-08-16T00:53:08.461Z,66.02
2022-08-16T00:55:38.418Z,66.34
2022-08-16T00:58:13.174Z,66.30
2022-08-16T01:00:45.601Z,66.27
2022-08-16T01:03:30.034Z,66.27
2022-08-16T01:05:59.644Z,66.44
2022-08-16T01:08:50.418Z,66.52
2022-08-16T01:11:18.347Z,66.79
2022-08-16T01:13:49.311Z,66.79
2022-08-16T01:16:25.819Z,66.88
2022-08-16T01:19:11.235Z,66.76
2022-08-16T01:21:55.630Z,67.00
2022-08-16T01:24:53.820Z,67.02
2022-08-16T01:27:57.692Z,66.97
2022-08-16T01:30:28.987Z,67.04
2022-08-16T01:33:02.876Z,66.94
2022-08-16T01:35:59.572Z,67.12
2022-08-16T01:38:35.482Z,67.08
2022-08-16T01:41:19.244Z,67.30
2022-08-16T01:43:53.980Z,67.48
2022-08-16T01:46:39.478Z,67.86
2022-08-16T01:49:43.059Z,67.57
2022-08-16T01:52:28.105Z,67.66
2022-08-16T01:55:18.652Z,67.58
2022-08-16T01:57:53.470Z,67.58
2022-08-16T02:00:29.929Z,67.61
2022-08-16T02:02:58.891Z,67.75
2022-08-16T02:05:25.824Z,67.60
2022-08-16T02:08:00.464Z,67.50
2022-08-16T02:10:28.530Z,67.74
2022-08-16T02:13:00.583Z,67.61
2022-08-16T02:15:40.277Z,67.51
2022-08-16T02:18:12.746Z,67.45
2022-08-16T02:20:42.606Z,67.84
2022-08-16T02:23:13.131Z,67.64
2022-08-16T02:25:52.444Z,67.75
2022-08-16T02:28:24.363Z,67.62
2022-08-16T02:30:53.880Z,67.39
2022-08-16T02:33:24.644Z,67.81
2022-08-16T02:36:14.383Z,67.12
2022-08-16T02:39:01.481Z,67.61
2022-08-16T02:41:29.353Z,67.55
2022-08-16T02:43:56.747Z,67.56
2022-08-16T02:46:33.308Z,67.43
2022-08-16T02:49:03.299Z,67.75
2022-08-16T02:51:35.830Z,67.94
2022-08-16T02:54:03.766Z,67.79
2022-08-16T02:56:34.812Z,67.89
2022-08-16T02:59:02.153Z,68.22
2022-08-16T03:01:33.795Z,68.35
2022-08-16T03:04:49.852Z,68.55
2022-08-16T03:06:59.227Z,68.06
2022-08-16T03:09:52.715Z,68.07
2022-08-16T03:12:30.251Z,68.49
2022-08-16T03:15:08.039Z,68.45
2022-08-16T03:17:37.716Z,68.49
2022-08-16T03:20:31.860Z,68.37
2022-08-16T03:22:59.484Z,68.42
2022-08-16T03:25:26.468Z,68.60
2022-08-16T03:28:10.512Z,68.30
2022-08-16T03:30:39.842Z,68.64
2022-08-16T03:33:10.887Z,68.78
2022-08-16T03:35:48.630Z,69.02
2022-08-16T03:38:34.507Z,69.06
2022-08-16T03:41:14.408Z,68.88
2022-08-16T03:43:55.929Z,68.97
2022-08-16T03:46:48.488Z,68.91
2022-08-16T03:49:20.550Z,69.06
2022-08-16T03:51:55.333Z,69.33
2022-08-16T03:54:28.979Z,69.09
2022-08-16T03:56:58.794Z,69.35
2022-08-16T03:59:31.358Z,69.52
2022-08-16T04:02:04.202Z,70.01
2022-08-16T04:04:40.351Z,69.58
2022-08-16T04:07:08.375Z,69.85
2022-08-16T04:09:39.534Z,69.55
2022-08-16T04:12:54.432Z,69.83
2022-08-16T04:14:59.357Z,69.67
2022-08-16T04:17:27.216Z,69.80
2022-08-16T04:19:58.258Z,69.68
2022-08-16T04:22:28.012Z,69.71
2022-08-16T04:25:00.207Z,69.81
2022-08-16T04:27:33.668Z,69.69
2022-08-16T04:30:04.978Z,68.90
2022-08-16T04:32:42.378Z,69.55
2022-08-16T04:35:16.521Z,69.12
2022-08-16T04:37:48.449Z,69.21
2022-08-16T04:40:25.593Z,69.27
2022-08-16T04:42:54.680Z,68.88
2022-08-16T04:45:35.291Z,68.89
2022-08-16T04:48:06.834Z,68.90
2022-08-16T04:50:43.735Z,68.74
2022-08-16T04:53:20.609Z,68.50
2022-08-16T04:55:53.428Z,68.23
2022-08-16T04:58:41.368Z,67.95
2022-08-16T05:01:11.546Z,67.83
2022-08-16T05:03:41.960Z,67.53
2022-08-16T05:06:45.602Z,67.42
2022-08-16T05:09:28.519Z,67.10
2022-08-16T05:11:57.896Z,66.37
2022-08-16T05:14:45.460Z,66.12
2022-08-16T05:17:24.941Z,65.97
2022-08-16T05:19:58.639Z,65.60
2022-08-16T05:25:41.233Z,64.90
2022-08-16T05:28:18.755Z,64.18
2022-08-16T05:30:52.486Z,63.84
2022-08-16T05:33:27.209Z,63.30
2022-08-16T05:35:58.802Z,62.93
2022-08-16T05:38:39.325Z,60.85
2022-08-16T05:41:13.965Z,57.17
2022-08-16T05:43:46.718Z,53.76
2022-08-16T05:46:28.663Z,50.42
2022-08-16T05:49:08.622Z,47.48
2022-08-16T05:51:46.053Z,45.30
2022-08-16T05:54:25.179Z,44.46
2022-08-16T05:56:56.202Z,43.21
2022-08-16T05:59:26.881Z,42.16
2022-08-16T06:01:55.805Z,41.30
2022-08-16T06:04:36.519Z,40.14
2022-08-16T06:07:24.965Z,40.57
2022-08-16T06:10:05.532Z,39.85
2022-08-16T06:12:35.714Z,39.02
2022-08-16T06:15:10.240Z,38.52
2022-08-16T06:17:44.312Z,38.16
2022-08-16T06:20:35.441Z,36.50
2022-08-16T06:23:18.911Z,36.07
2022-08-16T06:26:09.721Z,34.46
2022-08-16T06:28:41.914Z,34.44
2022-08-16T06:31:17.344Z,33.70
2022-08-16T06:33:52.928Z,33.46
2022-08-16T06:36:21.969Z,32.19
2022-08-16T06:38:57.259Z,32.85
2022-08-16T06:41:39.592Z,31.92
2022-08-16T06:44:21.035Z,30.68
2022-08-16T06:46:54.458Z,29.88
2022-08-16T06:49:22.346Z,29.49
2022-08-16T06:51:50.606Z,28.82
2022-08-16T06:54:27.694Z,28.21
2022-08-16T06:56:55.686Z,27.96
2022-08-16T06:59:25.548Z,28.39
2022-08-16T07:01:58.212Z,27.66
2022-08-16T07:04:33.156Z,27.31
2022-08-16T07:07:24.281Z,27.41
2022-08-16T07:09:59.874Z,27.71
2022-08-16T07:12:47.106Z,26.34
2022-08-16T07:15:17.106Z,25.96
2022-08-16T07:17:49.697Z,25.18
2022-08-16T07:20:35.736Z,25.39
2022-08-16T07:23:13.366Z,25.23
2022-08-16T07:25:49.001Z,24.44
2022-08-16T07:28:20.461Z,24.75
2022-08-16T07:30:48.858Z,24.78
2022-08-16T07:33:51.899Z,23.68
2022-08-16T07:36:21.858Z,23.82
2022-08-16T07:38:50.586Z,23.20
2022-08-16T07:41:18.629Z,22.47
2022-08-16T07:43:50.224Z,22.48
2022-08-16T07:46:38.778Z,22.72
2022-08-16T07:49:12.976Z,22.11
2022-08-16T07:51:42.279Z,22.46
2022-08-16T07:54:12.696Z,22.13
2022-08-16T07:56:49.466Z,21.17
2022-08-16T07:59:16.610Z,21.31
2022-08-16T08:01:44.683Z,21.59
2022-08-16T08:04:13.358Z,21.62
2022-08-16T08:06:45.445Z,20.89
2022-08-16T08:09:18.606Z,20.26
2022-08-16T08:11:59.735Z,20.17
2022-08-16T08:14:38.401Z,20.75
2022-08-16T08:17:08.616Z,20.82
2022-08-16T08:19:37.460Z,20.59
2022-08-16T08:22:09.912Z,20.10
2022-08-16T08:24:53.571Z,20.60
2022-08-16T08:27:27.324Z,20.16
2022-08-16T08:30:09.242Z,20.11
2022-08-16T08:32:59.792Z,20.33
2022-08-16T08:35:34.496Z,19.64
2022-08-16T08:38:03.282Z,20.08
2022-08-16T08:40:33.445Z,21.41
2022-08-16T08:43:12.456Z,21.43
2022-08-16T08:45:52.720Z,20.24
2022-08-16T08:48:33.836Z,19.75
2022-08-16T08:51:17.281Z,20.40
2022-08-16T08:53:57.615Z,21.96
2022-08-16T08:56:35.064Z,22.42
2022-08-16T08:59:22.316Z,21.48
2022-08-16T09:01:56.619Z,21.64
2022-08-16T09:04:40.903Z,21.07
2022-08-16T09:07:08.796Z,20.90
2022-08-16T09:09:41.294Z,21.23
2022-08-16T09:12:31.252Z,21.52
2022-08-16T09:15:08.352Z,21.50
2022-08-16T09:17:51.558Z,21.48
2022-08-16T09:20:23.798Z,21.38
2022-08-16T09:23:00.189Z,21.15
2022-08-16T09:25:39.954Z,21.19
2022-08-16T09:28:13.913Z,21.36
2022-08-16T09:31:21.291Z,22.11
2022-08-16T09:33:52.304Z,22.13
2022-08-16T09:36:32.680Z,21.50
2022-08-16T09:39:01.891Z,21.86
2022-08-16T09:41:30.005Z,21.78
2022-08-16T09:45:09.746Z,21.89
2022-08-16T09:46:49.948Z,22.37
2022-08-16T09:49:19.887Z,22.53
2022-08-16T09:51:53.314Z,22.81
2022-08-16T09:54:23.026Z,22.93
2022-08-16T09:56:52.638Z,23.02
2022-08-16T09:59:20.996Z,23.49
2022-08-16T10:01:52.536Z,23.92
2022-08-16T10:04:31.699Z,24.71
2022-08-16T10:07:11.891Z,24.61
2022-08-16T10:09:54.388Z,25.73
2022-08-16T10:12:46.128Z,26.36
2022-08-16T10:15:17.708Z,26.36
2022-08-16T10:18:00.780Z,26.49
2022-08-16T10:20:36.680Z,27.06
2022-08-16T10:23:07.993Z,27.94
2022-08-16T10:27:20.023Z,27.68
2022-08-16T10:28:32.036Z,27.80
2022-08-16T10:31:03.533Z,28.59
2022-08-16T10:33:33.525Z,28.48
2022-08-16T10:36:05.039Z,28.44
2022-08-16T10:38:36.807Z,27.33
2022-08-16T10:41:06.916Z,28.24
2022-08-16T10:43:36.432Z,28.37
2022-08-16T10:46:39.482Z,28.73
2022-08-16T10:48:52.969Z,28.26
2022-08-16T10:51:19.927Z,29.15
2022-08-16T10:54:04.940Z,28.79
2022-08-16T10:56:51.567Z,27.35
2022-08-16T10:59:44.050Z,28.05
2022-08-16T11:02:58.162Z,28.00
2022-08-16T11:05:12.438Z,28.15
2022-08-16T11:08:06.936Z,28.02
2022-08-16T11:19:05.307Z,29.23
2022-08-16T11:21:37.496Z,29.04
2022-08-16T11:24:40.238Z,29.20
2022-08-16T11:27:23.245Z,28.76
2022-08-16T11:29:56.122Z,29.11
2022-08-16T11:32:31.508Z,29.82
2022-08-16T11:35:10.840Z,29.54
2022-08-16T11:40:44.329Z,28.50
2022-08-16T11:43:12.976Z,27.77
2022-08-16T11:45:54.101Z,27.82
2022-08-16T11:48:23.870Z,28.44
2022-08-16T11:50:51.116Z,28.42
2022-08-16T11:53:22.031Z,28.89
2022-08-16T11:55:54.866Z,29.38
2022-08-16T11:58:28.220Z,29.43
2022-08-16T12:00:58.506Z,29.22
2022-08-16T12:03:34.945Z,29.59
2022-08-16T12:06:10.944Z,30.13
2022-08-16T12:09:01.032Z,29.86
2022-08-16T12:11:31.468Z,29.11
2022-08-16T12:14:05.915Z,28.48
2022-08-16T12:16:35.744Z,28.48
2022-08-16T12:19:10.678Z,28.74
2022-08-16T12:21:58.363Z,28.24
2022-08-16T12:24:27.537Z,28.00
2022-08-16T12:26:55.168Z,28.22
2022-08-16T12:29:22.560Z,27.85
2022-08-16T12:32:00.520Z,27.69
2022-08-16T12:34:29.577Z,27.07
2022-08-16T12:37:02.509Z,27.12
2022-08-16T12:39:29.687Z,27.29
2022-08-16T12:41:57.763Z,27.43
2022-08-16T12:44:31.189Z,26.99
2022-08-16T12:47:17.752Z,26.68
2022-08-16T12:49:45.833Z,25.62
2022-08-16T12:52:32.772Z,26.34
2022-08-16T12:55:01.937Z,26.08
2022-08-16T12:57:36.651Z,25.60
2022-08-16T13:00:23.271Z,25.48
2022-08-16T13:02:54.566Z,24.94
2022-08-16T13:05:24.099Z,24.61
2022-08-16T13:07:53.320Z,24.42
2022-08-16T13:10:37.895Z,24.96
2022-08-16T13:13:09.100Z,25.33
2022-08-16T13:15:55.533Z,24.78
2022-08-16T13:18:34.729Z,23.80
2022-08-16T13:21:06.380Z,23.87
2022-08-16T13:23:36.792Z,23.86
2022-08-16T13:26:12.821Z,23.31
2022-08-16T13:28:47.713Z,24.10
2022-08-16T13:31:16.089Z,23.60
2022-08-16T13:33:44.188Z,23.78
2022-08-16T13:39:01.489Z,23.93
2022-08-16T13:41:30.459Z,23.43
2022-08-16T13:44:00.862Z,23.05
2022-08-16T13:46:35.963Z,23.04
2022-08-16T13:49:04.315Z,23.33
2022-08-16T13:51:31.489Z,24.22
2022-08-16T13:54:04.070Z,24.28
2022-08-16T13:56:38.933Z,24.38
2022-08-16T13:59:19.843Z,23.85
2022-08-16T14:01:59.819Z,23.86
2022-08-16T14:04:31.888Z,23.58
2022-08-16T14:07:00.654Z,23.70
2022-08-16T14:09:29.049Z,23.96
2022-08-16T14:12:00.889Z,24.18
2022-08-16T14:14:30.221Z,24.64
2022-08-16T14:16:59.997Z,24.89
2022-08-16T14:19:29.607Z,24.51
2022-08-16T14:22:13.571Z,24.12
2022-08-16T14:24:46.796Z,24.02
2022-08-16T14:27:21.137Z,23.71
2022-08-16T14:29:50.006Z,23.79
2022-08-16T14:32:33.154Z,23.97
2022-08-16T14:35:05.547Z,24.04
2022-08-16T14:37:35.652Z,23.81
2022-08-16T14:40:04.344Z,24.08
2022-08-16T14:42:32.370Z,24.40
2022-08-16T14:45:00.479Z,24.60
2022-08-16T14:47:34.085Z,24.21
2022-08-16T14:50:02.853Z,25.00
2022-08-16T14:55:21.759Z,25.47
2022-08-16T14:57:49.835Z,25.03
2022-08-16T15:00:22.342Z,25.00
2022-08-16T15:03:02.259Z,25.09
2022-08-16T15:07:56.912Z,25.39
2022-08-16T15:10:26.606Z,25.59
2022-08-16T15:12:59.770Z,25.81
2022-08-16T15:15:29.127Z,25.31
2022-08-16T15:17:57.369Z,25.84
2022-08-16T15:20:30.648Z,25.54
2022-08-16T15:22:59.683Z,25.68
2022-08-16T15:25:30.115Z,25.59
2022-08-16T15:27:59.319Z,24.90
2022-08-16T15:30:48.192Z,24.90
2022-08-16T15:33:19.986Z,24.76
2022-08-16T15:36:03.522Z,25.32
2022-08-16T15:39:02.610Z,25.93
2022-08-16T15:41:48.021Z,25.85
2022-08-16T15:44:22.308Z,26.26
2022-08-16T15:46:59.919Z,25.77
2022-08-16T15:49:37.720Z,26.02
2022-08-16T15:52:18.399Z,26.10
2022-08-16T15:54:51.468Z,26.17
2022-08-16T15:57:25.415Z,25.84
2022-08-16T15:59:56.118Z,25.96
2022-08-16T16:02:31.009Z,25.56
2022-08-16T16:05:06.816Z,25.62
2022-08-16T16:07:36.856Z,25.57
2022-08-16T16:10:13.423Z,25.47
2022-08-16T16:12:54.152Z,25.39
2022-08-16T16:15:29.458Z,25.02
2022-08-16T16:17:57.373Z,25.09
2022-08-16T16:20:27.498Z,25.34
2022-08-16T16:23:10.421Z,25.00
2022-08-16T16:25:43.740Z,25.47
2022-08-16T16:29:05.422Z,25.71
2022-08-16T16:31:04.770Z,26.03
2022-08-16T16:33:34.056Z,26.62
2022-08-16T16:36:03.988Z,26.74
2022-08-16T16:38:34.616Z,26.64
2022-08-16T16:41:08.991Z,27.15
2022-08-16T16:43:38.556Z,27.33
2022-08-16T16:46:41.369Z,27.29
2022-08-16T16:48:58.061Z,27.74
2022-08-16T16:51:27.908Z,27.37
2022-08-16T16:53:56.859Z,27.40
2022-08-16T16:56:34.383Z,27.91
2022-08-16T16:59:10.497Z,27.77
2022-08-16T17:01:59.584Z,28.27
2022-08-16T17:04:40.520Z,28.23
2022-08-16T17:07:07.809Z,28.00
2022-08-16T17:13:06.897Z,28.73
2022-08-16T17:15:36.527Z,28.32
2022-08-16T17:18:04.263Z,28.70
2022-08-16T17:20:52.907Z,29.06
2022-08-16T17:23:20.318Z,28.65
2022-08-16T17:26:10.546Z,29.39
2022-08-16T17:28:59.497Z,29.56
2022-08-16T17:31:38.435Z,29.96
2022-08-16T17:34:28.870Z,30.69
2022-08-16T17:37:00.522Z,30.81
2022-08-16T17:39:29.921Z,31.74
2022-08-16T17:42:12.515Z,31.85
2022-08-16T17:44:40.101Z,32.18
2022-08-16T17:47:07.250Z,32.18
2022-08-16T17:49:37.866Z,31.95
2022-08-16T17:52:05.932Z,32.08
2022-08-16T17:54:33.138Z,32.40
2022-08-16T17:57:01.118Z,33.33
2022-08-16T17:59:29.804Z,32.88
2022-08-16T18:01:57.737Z,33.37
2022-08-16T18:04:49.628Z,33.79
2022-08-16T18:07:12.996Z,33.26
2022-08-16T18:09:40.906Z,33.82
2022-08-16T18:12:44.516Z,34.57
2022-08-16T18:15:11.827Z,34.64
2022-08-16T18:17:40.487Z,34.84
2022-08-16T18:20:28.942Z,34.63
2022-08-16T18:23:09.285Z,35.14
2022-08-16T18:25:41.855Z,35.60
2022-08-16T18:28:09.164Z,35.43
2022-08-16T18:30:36.304Z,35.79
2022-08-16T18:33:03.802Z,36.27
2022-08-16T18:35:30.847Z,36.77
2022-08-16T18:37:58.185Z,37.17
2022-08-16T18:40:26.732Z,37.06
2022-08-16T18:43:02.823Z,37.06
2022-08-16T18:45:35.397Z,37.46
2022-08-16T18:48:05.389Z,37.99
2022-08-16T18:50:59.071Z,37.63
2022-08-16T18:53:21.899Z,37.46
2022-08-16T18:55:49.681Z,38.15
2022-08-16T18:58:17.770Z,38.33
2022-08-16T19:00:56.056Z,38.54
2022-08-16T19:03:29.941Z,38.81
2022-08-16T19:06:02.939Z,38.76
2022-08-16T19:08:31.618Z,38.91
2022-08-16T19:10:58.482Z,39.04
2022-08-16T19:13:27.856Z,39.31
2022-08-16T19:15:57.280Z,39.29
2022-08-16T19:18:26.158Z,39.81
2022-08-16T19:20:55.462Z,39.78
2022-08-16T19:23:26.316Z,39.76
2022-08-16T19:26:02.515Z,39.62
2022-08-16T19:28:49.333Z,39.27
2022-08-16T19:31:32.753Z,39.69
2022-08-16T19:34:00.827Z,39.74
2022-08-16T19:36:36.771Z,39.98
2022-08-16T19:39:14.545Z,39.85
2022-08-16T19:41:44.396Z,39.87
2022-08-16T19:44:11.840Z,39.89
2022-08-16T19:46:41.657Z,40.20
2022-08-16T19:49:08.535Z,39.97
2022-08-16T19:51:35.417Z,39.87
2022-08-16T19:54:05.016Z,40.18
2022-08-16T19:56:32.127Z,39.78
2022-08-16T20:01:46.942Z,40.24
2022-08-16T20:04:13.921Z,40.15
2022-08-16T20:06:41.981Z,40.39
2022-08-16T20:09:10.938Z,40.46
2022-08-16T20:11:44.296Z,40.43
2022-08-16T20:14:30.980Z,40.50
2022-08-16T20:16:59.768Z,40.92
2022-08-16T20:19:29.537Z,40.47
2022-08-16T20:22:06.001Z,40.79
2022-08-16T20:24:35.118Z,40.93
2022-08-16T20:27:04.661Z,40.73
2022-08-16T20:29:32.651Z,41.06
2022-08-16T20:31:59.639Z,40.76
2022-08-16T20:34:26.686Z,40.80
2022-08-16T20:36:53.846Z,40.31
2022-08-16T20:39:20.931Z,40.54
2022-08-16T20:41:47.860Z,40.60
2022-08-16T20:44:14.840Z,40.81
2022-08-16T20:46:41.992Z,40.42
2022-08-16T20:49:10.230Z,40.87
2022-08-16T20:51:46.670Z,40.92
2022-08-16T20:54:14.729Z,40.49
2022-08-16T20:56:41.820Z,40.80
2022-08-16T20:59:08.851Z,41.08
2022-08-16T21:01:46.426Z,40.92
2022-08-16T21:04:22.506Z,41.11
2022-08-16T21:06:54.113Z,40.78
2022-08-16T21:09:33.882Z,40.96
2022-08-16T21:12:05.555Z,41.22
2022-08-16T21:14:34.410Z,41.27
2022-08-16T21:17:06.568Z,41.37
2022-08-16T21:19:37.330Z,41.55
2022-08-16T21:22:11.185Z,41.48
2022-08-16T21:24:38.285Z,41.96
2022-08-16T21:27:05.272Z,41.81
2022-08-16T21:29:39.665Z,41.80
2022-08-16T21:32:17.706Z,41.95
2022-08-16T21:34:45.110Z,41.84
2022-08-16T21:37:12.464Z,42.37
2022-08-16T21:39:44.693Z,42.54
2022-08-16T21:42:14.373Z,42.17
2022-08-16T21:44:42.151Z,42.90
2022-08-16T21:47:12.107Z,43.44
2022-08-16T21:49:39.174Z,43.35
2022-08-16T21:52:08.105Z,43.16
2022-08-16T21:54:36.943Z,43.22
2022-08-16T21:57:07.559Z,43.49
2022-08-16T21:59:37.178Z,43.19
2022-08-16T22:02:04.242Z,43.42
2022-08-16T22:04:36.806Z,43.42
2022-08-16T22:07:09.765Z,43.85
2022-08-16T22:09:36.622Z,43.38
2022-08-16T22:12:04.601Z,43.60
2022-08-16T22:14:34.019Z,44.29
2022-08-16T22:17:01.371Z,44.27
2022-08-16T22:19:28.505Z,44.83
2022-08-16T22:21:58.323Z,45.16
2022-08-16T22:24:25.175Z,45.20
2022-08-16T22:26:52.086Z,45.42
2022-08-16T22:29:19.256Z,45.74
2022-08-16T22:31:46.145Z,46.28
2022-08-16T22:34:13.760Z,46.36
2022-08-16T22:36:42.019Z,46.47
2022-08-16T22:39:11.188Z,46.43
2022-08-16T22:41:40.082Z,46.87
2022-08-16T22:44:07.288Z,47.54
2022-08-16T22:46:36.587Z,47.39
2022-08-16T22:49:05.279Z,47.96
2022-08-16T22:51:33.013Z,47.56
2022-08-16T22:54:39.250Z,48.22
2022-08-16T22:56:50.252Z,48.69
2022-08-16T22:59:20.198Z,48.91
2022-08-16T23:01:47.174Z,48.63
2022-08-16T23:04:14.071Z,48.58
2022-08-16T23:06:41.132Z,49.43
2022-08-16T23:09:09.450Z,49.33
2022-08-16T23:11:39.349Z,49.36
2022-08-16T23:14:06.239Z,49.84
2022-08-16T23:16:36.189Z,50.01
2022-08-16T23:19:05.749Z,50.09
2022-08-16T23:21:37.592Z,49.70
2022-08-16T23:24:06.248Z,50.48
2022-08-16T23:26:44.976Z,50.81
2022-08-16T23:29:25.465Z,50.80
2022-08-16T23:31:58.371Z,50.56
2022-08-16T23:34:27.950Z,51.22
2022-08-16T23:36:58.095Z,51.39
2022-08-16T23:39:25.313Z,51.67
2022-08-16T23:41:52.387Z,51.95
2022-08-16T23:44:44.111Z,51.55
2022-08-16T23:47:06.434Z,51.66
2022-08-16T23:49:57.071Z,51.89
2022-08-16T23:52:45.285Z,52.55
2022-08-16T23:55:09.381Z,52.26
2022-08-16T23:57:37.518Z,52.53
